Time;durP1;ratioP1;P1;durP2;ratioP2;P2;SDS_P1;SDS_P2;PMS_P1;PMS_P2;Temp;Humidity;BMP_temperature;BMP_pressure;BME280_temperature;BME280_humidity;BME280_pressure;Samples;Min_cycle;Max_cycle;Signal;HPM_P1;HPM_P2
2022/09/16 00:00:35;;;;;;;;;;;11.50;99.90;;;;;;5015612;28;20589;-66
2022/09/16 00:03:01;;;;;;;;;;;11.50;99.90;;;;;;5028019;28;20311;-66
2022/09/16 00:05:27;;;;;;;;;;;11.40;99.90;;;;;;5002302;28;20426;-66
2022/09/16 00:07:53;;;;;;;;;;;11.30;99.90;;;;;;5030932;28;19948;-66
2022/09/16 00:10:20;;;;;;;;;;;11.30;99.90;;;;;;5030728;28;19920;-66
2022/09/16 00:12:45;;;;;;;;;;;11.20;99.90;;;;;;4994360;28;20256;-66
2022/09/16 00:15:11;;;;;;;;;;;11.20;99.90;;;;;;5023037;28;19925;-66
2022/09/16 00:17:37;;;;;;;;;;;11.10;99.90;;;;;;5017058;28;19924;-66
2022/09/16 00:20:03;;;;;;;;;;;11.10;99.90;;;;;;5014907;28;19943;-66
2022/09/16 00:22:29;;;;;;;;;;;11.10;99.90;;;;;;5014733;28;20055;-66
2022/09/16 00:24:54;;;;;;;;;;;11.10;99.90;;;;;;5013869;28;20338;-66
2022/09/16 00:27:20;;;;;;;;;;;11.10;99.90;;;;;;5034356;28;19931;-66
2022/09/16 00:29:45;;;;;;;;;;;11.10;99.90;;;;;;5018635;28;20314;-66
2022/09/16 00:32:10;;;;;;;;;;;11.10;99.90;;;;;;5014727;28;19921;-66
2022/09/16 00:34:36;;;;;;;;;;;11.20;99.90;;;;;;5022419;28;19936;-66
2022/09/16 00:37:02;;;;;;;;;;;11.30;99.90;;;;;;5028739;28;19964;-66
2022/09/16 00:39:28;;;;;;;;;;;11.30;99.90;;;;;;5022402;28;19932;-66
2022/09/16 00:41:54;;;;;;;;;;;11.40;99.90;;;;;;5007666;28;20330;-66
2022/09/16 00:44:38;;;;;;;;;;;11.40;99.90;;;;;;4995910;28;19921;-66
2022/09/16 00:47:04;;;;;;;;;;;11.40;99.90;;;;;;5019831;28;20278;-66
2022/09/16 00:49:30;;;;;;;;;;;11.40;99.90;;;;;;5049862;28;19931;-66
2022/09/16 00:51:58;;;;;;;;;;;11.40;99.90;;;;;;4998857;28;20046;-66
2022/09/16 00:54:24;;;;;;;;;;;11.40;99.90;;;;;;5026033;28;19925;-66
2022/09/16 00:56:52;;;;;;;;;;;11.40;99.90;;;;;;5032343;28;19927;-66
2022/09/16 00:59:23;;;;;;;;;;;11.40;99.90;;;;;;5026425;28;20314;-66
2022/09/16 01:01:49;;;;;;;;;;;11.40;99.90;;;;;;5050474;28;20004;-66
2022/09/16 01:04:19;;;;;;;;;;;11.40;99.90;;;;;;5020108;28;19959;-66
2022/09/16 01:06:45;;;;;;;;;;;11.40;99.90;;;;;;5029899;28;19928;-66
2022/09/16 01:09:11;;;;;;;;;;;11.40;99.90;;;;;;5024462;28;19925;-66
2022/09/16 01:11:36;;;;;;;;;;;11.40;99.90;;;;;;5015813;28;19929;-66
2022/09/16 01:16:50;;;;;;;;;;;11.50;99.90;;;;;;5026621;28;19921;-66
2022/09/16 01:19:19;;;;;;;;;;;11.50;99.90;;;;;;5032295;28;20377;-66
2022/09/16 01:21:54;;;;;;;;;;;11.50;99.90;;;;;;5001881;28;19947;-66
2022/09/16 01:24:25;;;;;;;;;;;11.50;99.90;;;;;;5022796;28;19928;-66
2022/09/16 01:27:00;;;;;;;;;;;11.50;99.90;;;;;;5013486;28;19921;-66
2022/09/16 01:29:32;;;;;;;;;;;11.50;99.90;;;;;;5013981;28;19972;-66
2022/09/16 01:32:10;;;;;;;;;;;11.50;99.90;;;;;;5025123;28;19971;-66
2022/09/16 01:34:39;;;;;;;;;;;11.50;99.90;;;;;;5023397;28;20026;-66
2022/09/16 01:37:13;;;;;;;;;;;11.50;99.90;;;;;;5019903;28;19932;-66
2022/09/16 01:39:58;;;;;;;;;;;11.40;99.90;;;;;;5016024;28;19995;-66
2022/09/16 01:42:37;;;;;;;;;;;11.40;99.90;;;;;;5014747;28;19920;-66
2022/09/16 01:45:05;;;;;;;;;;;11.40;99.90;;;;;;5024200;28;19920;-66
2022/09/16 01:47:36;;;;;;;;;;;11.40;99.90;;;;;;5015661;28;19925;-66
2022/09/16 01:50:06;;;;;;;;;;;11.30;99.90;;;;;;5013478;28;19921;-66
2022/09/16 01:52:35;;;;;;;;;;;11.30;99.90;;;;;;5013954;28;20303;-66
2022/09/16 01:55:07;;;;;;;;;;;11.30;99.90;;;;;;5013378;28;19972;-66
2022/09/16 01:57:36;;;;;;;;;;;11.20;99.90;;;;;;5012556;28;19921;-66
2022/09/16 02:00:05;;;;;;;;;;;11.20;99.90;;;;;;5022389;28;19986;-66
2022/09/16 02:02:35;;;;;;;;;;;11.20;99.90;;;;;;5012279;28;19936;-67
2022/09/16 02:05:04;;;;;;;;;;;11.10;99.90;;;;;;4997122;28;20578;-66
2022/09/16 02:07:31;;;;;;;;;;;11.10;99.90;;;;;;5012555;28;19925;-66
2022/09/16 02:09:59;;;;;;;;;;;11.00;99.90;;;;;;5012130;28;19932;-66
2022/09/16 02:12:27;;;;;;;;;;;11.00;99.90;;;;;;5010439;28;19921;-66
2022/09/16 02:14:55;;;;;;;;;;;11.00;99.90;;;;;;5020654;28;19925;-66
2022/09/16 02:17:22;;;;;;;;;;;10.90;99.90;;;;;;5003781;28;19921;-66
2022/09/16 02:19:52;;;;;;;;;;;10.90;99.90;;;;;;5030410;28;19967;-66
2022/09/16 02:22:22;;;;;;;;;;;10.80;99.90;;;;;;5029612;28;20011;-66
2022/09/16 02:24:48;;;;;;;;;;;10.80;99.90;;;;;;5035343;28;19925;-66
2022/09/16 02:27:16;;;;;;;;;;;10.70;99.90;;;;;;5031993;28;19921;-66
2022/09/16 02:29:44;;;;;;;;;;;10.70;99.90;;;;;;5020456;28;19967;-66
2022/09/16 02:32:11;;;;;;;;;;;10.70;99.90;;;;;;5039419;28;19943;-66
2022/09/16 02:34:38;;;;;;;;;;;10.70;99.90;;;;;;5034681;28;19929;-66
2022/09/16 02:37:07;;;;;;;;;;;10.80;99.90;;;;;;5029753;28;19921;-66
2022/09/16 02:39:35;;;;;;;;;;;10.90;99.90;;;;;;5017970;28;19964;-66
2022/09/16 02:42:00;;;;;;;;;;;10.90;99.90;;;;;;5036044;28;19927;-66
2022/09/16 02:44:26;;;;;;;;;;;11.00;99.90;;;;;;5016555;28;19925;-66
2022/09/16 02:46:59;;;;;;;;;;;11.00;99.90;;;;;;5019376;28;19975;-66
2022/09/16 02:49:39;;;;;;;;;;;11.00;99.90;;;;;;5033795;28;19940;-66
2022/09/16 02:52:11;;;;;;;;;;;11.10;99.90;;;;;;5029914;28;19921;-66
2022/09/16 02:54:51;;;;;;;;;;;11.10;99.90;;;;;;5021062;28;19929;-67
2022/09/16 02:57:16;;;;;;;;;;;11.10;99.90;;;;;;5037381;28;19925;-66
2022/09/16 02:59:42;;;;;;;;;;;11.20;99.90;;;;;;5049857;28;19936;-66
2022/09/16 03:02:07;;;;;;;;;;;11.20;99.90;;;;;;5034841;28;19921;-66
2022/09/16 03:04:34;;;;;;;;;;;11.30;99.90;;;;;;5037157;28;19925;-67
2022/09/16 03:06:59;;;;;;;;;;;11.30;99.90;;;;;;5023237;28;19925;-67
2022/09/16 03:09:28;;;;;;;;;;;11.30;99.90;;;;;;5017165;28;19974;-66
2022/09/16 03:12:00;;;;;;;;;;;11.30;99.90;;;;;;5013749;28;19952;-67
2022/09/16 03:14:52;;;;;;;;;;;11.30;99.90;;;;;;5011769;28;19922;-66
2022/09/16 03:17:17;;;;;;;;;;;11.30;99.90;;;;;;5006394;28;20326;-66
2022/09/16 03:19:55;;;;;;;;;;;11.30;99.90;;;;;;5021492;28;20011;-67
2022/09/16 03:22:39;;;;;;;;;;;11.20;99.90;;;;;;5032935;28;19975;-66
2022/09/16 03:25:17;;;;;;;;;;;11.20;99.90;;;;;;5027675;28;19925;-66
2022/09/16 03:27:46;;;;;;;;;;;11.20;99.90;;;;;;5031173;28;19927;-66
2022/09/16 03:30:12;;;;;;;;;;;11.10;99.90;;;;;;5042652;28;19921;-66
2022/09/16 03:32:42;;;;;;;;;;;11.10;99.90;;;;;;5024825;28;20293;-66
2022/09/16 03:35:13;;;;;;;;;;;11.10;99.90;;;;;;5022559;28;19925;-66
2022/09/16 03:37:39;;;;;;;;;;;11.00;99.90;;;;;;5015563;28;19967;-66
2022/09/16 03:40:08;;;;;;;;;;;10.90;99.90;;;;;;5027029;28;19922;-66
2022/09/16 03:42:34;;;;;;;;;;;10.90;99.90;;;;;;5032231;28;20260;-67
2022/09/16 03:44:59;;;;;;;;;;;10.80;99.90;;;;;;5030297;28;19948;-66
2022/09/16 03:47:24;;;;;;;;;;;10.70;99.90;;;;;;5015198;28;19925;-66
2022/09/16 03:49:50;;;;;;;;;;;10.70;99.90;;;;;;5021430;28;19948;-66
2022/09/16 03:52:17;;;;;;;;;;;10.60;99.90;;;;;;5006820;28;20339;-66
2022/09/16 03:54:43;;;;;;;;;;;10.60;99.90;;;;;;5020185;28;20394;-66
2022/09/16 03:57:09;;;;;;;;;;;10.50;99.90;;;;;;5019298;28;19983;-66
2022/09/16 03:59:34;;;;;;;;;;;10.40;99.90;;;;;;5021901;28;19921;-66
2022/09/16 04:01:59;;;;;;;;;;;10.40;99.90;;;;;;5015111;28;20516;-66
2022/09/16 04:04:25;;;;;;;;;;;10.40;99.90;;;;;;5014804;28;19925;-66
2022/09/16 04:06:51;;;;;;;;;;;10.40;99.90;;;;;;5029736;28;19925;-66
2022/09/16 04:09:16;;;;;;;;;;;10.40;99.90;;;;;;5011715;28;19972;-66
2022/09/16 04:11:42;;;;;;;;;;;10.40;99.90;;;;;;4995384;28;20245;-66
2022/09/16 04:14:07;;;;;;;;;;;10.40;99.90;;;;;;4989625;28;19928;-66
2022/09/16 04:16:33;;;;;;;;;;;10.40;99.90;;;;;;5031994;28;19959;-66
2022/09/16 04:18:58;;;;;;;;;;;10.40;99.90;;;;;;5012324;28;19975;-67
2022/09/16 04:21:24;;;;;;;;;;;10.40;99.90;;;;;;5011891;28;19945;-66
2022/09/16 04:23:49;;;;;;;;;;;10.30;99.90;;;;;;5010755;28;20310;-67
2022/09/16 04:26:16;;;;;;;;;;;10.30;99.90;;;;;;5014579;28;20024;-66
2022/09/16 04:28:41;;;;;;;;;;;10.20;99.90;;;;;;5013225;28;19929;-66
2022/09/16 04:31:10;;;;;;;;;;;10.20;99.90;;;;;;4997999;28;19925;-67
2022/09/16 04:33:35;;;;;;;;;;;10.10;99.90;;;;;;5013818;28;19924;-66
2022/09/16 04:36:08;;;;;;;;;;;10.10;99.90;;;;;;5021383;28;20350;-66
2022/09/16 04:38:37;;;;;;;;;;;10.10;99.90;;;;;;5010934;28;19965;-66
2022/09/16 04:41:07;;;;;;;;;;;10.00;99.90;;;;;;5020380;28;19921;-67
2022/09/16 04:43:33;;;;;;;;;;;10.00;99.90;;;;;;5013835;28;19937;-67
2022/09/16 04:45:59;;;;;;;;;;;10.00;99.90;;;;;;5025235;28;19921;-67
2022/09/16 04:48:24;;;;;;;;;;;9.90;99.90;;;;;;5017015;28;19979;-67
2022/09/16 04:50:51;;;;;;;;;;;9.90;99.90;;;;;;5012911;28;20299;-67
2022/09/16 04:53:16;;;;;;;;;;;9.80;99.90;;;;;;5011229;28;19940;-67
2022/09/16 04:55:42;;;;;;;;;;;9.80;99.90;;;;;;5039442;28;19921;-66
2022/09/16 04:58:08;;;;;;;;;;;9.70;99.90;;;;;;5011429;28;19921;-67
2022/09/16 05:00:33;;;;;;;;;;;9.70;99.90;;;;;;5005703;28;19975;-67
2022/09/16 05:02:59;;;;;;;;;;;9.70;99.90;;;;;;5025306;28;20396;-66
2022/09/16 05:05:24;;;;;;;;;;;9.70;99.90;;;;;;5023085;28;19924;-67
2022/09/16 05:07:51;;;;;;;;;;;9.70;99.90;;;;;;5014758;28;20369;-67
2022/09/16 05:10:16;;;;;;;;;;;9.70;99.90;;;;;;5015066;28;19932;-67
2022/09/16 05:12:42;;;;;;;;;;;9.80;99.90;;;;;;5023474;28;20287;-67
2022/09/16 05:15:08;;;;;;;;;;;9.80;99.90;;;;;;5012931;28;19975;-67
2022/09/16 05:17:33;;;;;;;;;;;9.90;99.90;;;;;;5029141;28;19921;-67
2022/09/16 05:19:59;;;;;;;;;;;10.00;99.90;;;;;;5009161;28;20355;-66
2022/09/16 05:22:24;;;;;;;;;;;10.00;99.90;;;;;;5023489;28;19925;-66
2022/09/16 05:24:50;;;;;;;;;;;10.10;99.90;;;;;;5022758;28;19928;-66
2022/09/16 05:27:16;;;;;;;;;;;10.10;99.90;;;;;;5016529;28;19921;-66
2022/09/16 05:29:41;;;;;;;;;;;10.10;99.90;;;;;;5022600;28;19929;-67
2022/09/16 05:32:07;;;;;;;;;;;10.10;99.90;;;;;;5015883;28;20007;-66
2022/09/16 05:34:34;;;;;;;;;;;10.10;99.90;;;;;;5020499;28;19934;-66
2022/09/16 05:37:00;;;;;;;;;;;10.10;99.90;;;;;;5002632;28;19920;-67
2022/09/16 05:39:26;;;;;;;;;;;10.10;99.90;;;;;;5026831;28;20369;-67
2022/09/16 05:41:53;;;;;;;;;;;10.00;99.90;;;;;;5037088;28;19971;-66
2022/09/16 05:44:18;;;;;;;;;;;10.00;99.90;;;;;;5012377;28;19936;-67
2022/09/16 05:46:44;;;;;;;;;;;10.10;99.90;;;;;;5017895;28;19921;-67
2022/09/16 05:49:09;;;;;;;;;;;10.20;99.90;;;;;;5013664;28;21890;-66
2022/09/16 05:51:36;;;;;;;;;;;10.20;99.90;;;;;;5045669;28;19956;-66
2022/09/16 05:54:02;;;;;;;;;;;10.40;99.90;;;;;;5025212;28;19931;-67
2022/09/16 05:56:28;;;;;;;;;;;10.50;99.90;;;;;;4998425;28;19932;-67
2022/09/16 05:58:56;;;;;;;;;;;10.60;99.90;;;;;;5027674;28;19925;-66
2022/09/16 06:01:23;;;;;;;;;;;10.70;99.90;;;;;;5035369;28;19927;-66
2022/09/16 06:03:49;;;;;;;;;;;10.80;99.90;;;;;;5036743;28;19974;-66
2022/09/16 06:06:28;;;;;;;;;;;11.00;99.90;;;;;;5030595;28;19932;-66
2022/09/16 06:08:55;;;;;;;;;;;11.00;99.90;;;;;;5011584;28;20359;-66
2022/09/16 06:11:21;;;;;;;;;;;10.90;99.90;;;;;;5032751;28;20282;-66
2022/09/16 06:13:50;;;;;;;;;;;11.10;99.90;;;;;;5013951;28;19925;-67
2022/09/16 06:16:16;;;;;;;;;;;11.10;99.90;;;;;;5022734;28;19929;-66
2022/09/16 06:18:42;;;;;;;;;;;11.10;99.90;;;;;;5039587;28;19925;-66
2022/09/16 06:21:09;;;;;;;;;;;11.20;99.90;;;;;;5024440;28;19931;-66
2022/09/16 06:23:35;;;;;;;;;;;11.40;99.90;;;;;;5035974;28;19920;-66
2022/09/16 06:26:01;;;;;;;;;;;11.60;99.90;;;;;;5026346;28;19925;-66
2022/09/16 06:28:27;;;;;;;;;;;12.20;99.90;;;;;;5030804;28;19929;-67
2022/09/16 06:31:06;;;;;;;;;;;13.20;99.90;;;;;;5029926;28;20031;-67
2022/09/16 06:33:33;;;;;;;;;;;14.20;99.90;;;;;;5017543;28;19921;-66
2022/09/16 06:36:03;;;;;;;;;;;15.30;99.90;;;;;;5013258;28;19925;-67
2022/09/16 06:38:28;;;;;;;;;;;16.10;99.90;;;;;;5026267;28;19988;-67
2022/09/16 06:40:56;;;;;;;;;;;16.80;99.90;;;;;;5016670;28;19920;-67
2022/09/16 06:43:22;;;;;;;;;;;17.40;99.90;;;;;;5019626;28;19928;-67
2022/09/16 06:45:47;;;;;;;;;;;18.00;99.90;;;;;;5021799;28;19921;-67
2022/09/16 06:48:13;;;;;;;;;;;18.50;99.90;;;;;;5029504;28;19924;-67
2022/09/16 06:50:38;;;;;;;;;;;19.00;99.90;;;;;;5019957;28;19925;-67
2022/09/16 06:53:04;;;;;;;;;;;19.50;99.90;;;;;;5022652;28;19924;-68
2022/09/16 06:55:29;;;;;;;;;;;19.80;97.60;;;;;;5012011;28;20510;-67
2022/09/16 06:57:55;;;;;;;;;;;19.90;96.30;;;;;;4996590;28;19921;-67
2022/09/16 07:00:21;;;;;;;;;;;20.50;97.70;;;;;;5011034;28;19921;-67
2022/09/16 07:02:46;;;;;;;;;;;20.80;96.30;;;;;;5023871;28;19925;-67
2022/09/16 07:05:12;;;;;;;;;;;21.00;94.90;;;;;;5016463;28;20520;-67
2022/09/16 07:07:38;;;;;;;;;;;21.00;95.50;;;;;;5020594;28;20451;-67
2022/09/16 07:10:05;;;;;;;;;;;20.50;95.60;;;;;;5027164;28;19928;-67
2022/09/16 07:12:30;;;;;;;;;;;19.60;95.10;;;;;;5026358;28;20463;-68
2022/09/16 07:14:56;;;;;;;;;;;18.80;96.60;;;;;;5030556;28;19924;-67
2022/09/16 07:17:24;;;;;;;;;;;18.30;97.30;;;;;;5038033;28;19925;-67
2022/09/16 07:19:50;;;;;;;;;;;17.70;98.60;;;;;;5015831;28;19925;-67
2022/09/16 07:22:15;;;;;;;;;;;17.20;99.60;;;;;;5014662;28;19921;-67
2022/09/16 07:24:41;;;;;;;;;;;17.40;99.70;;;;;;5004842;28;20525;-67
2022/09/16 07:27:06;;;;;;;;;;;18.00;98.80;;;;;;5033088;28;19969;-68
2022/09/16 07:29:32;;;;;;;;;;;18.50;98.20;;;;;;5035347;28;19971;-67
2022/09/16 07:31:57;;;;;;;;;;;18.80;97.50;;;;;;5034671;28;19994;-68
2022/09/16 07:34:23;;;;;;;;;;;18.60;97.30;;;;;;5022070;28;20052;-68
2022/09/16 07:36:48;;;;;;;;;;;18.10;98.00;;;;;;4989699;28;19932;-68
2022/09/16 07:39:15;;;;;;;;;;;17.60;98.70;;;;;;5013744;28;20532;-68
2022/09/16 07:41:42;;;;;;;;;;;17.10;99.60;;;;;;5014635;28;19924;-68
2022/09/16 07:44:10;;;;;;;;;;;16.60;99.90;;;;;;4994165;28;19925;-67
2022/09/16 07:46:35;;;;;;;;;;;16.20;99.90;;;;;;5011242;28;20397;-68
2022/09/16 07:49:02;;;;;;;;;;;15.80;99.90;;;;;;5027430;28;19933;-68
2022/09/16 07:51:28;;;;;;;;;;;15.50;99.90;;;;;;4996757;28;20326;-68
2022/09/16 07:53:55;;;;;;;;;;;15.30;99.90;;;;;;5013650;28;19925;-68
2022/09/16 07:56:21;;;;;;;;;;;15.30;99.90;;;;;;5027904;28;19971;-68
2022/09/16 07:58:47;;;;;;;;;;;15.30;99.90;;;;;;5027172;28;19925;-68
2022/09/16 08:01:14;;;;;;;;;;;15.50;99.90;;;;;;5013906;28;20272;-68
2022/09/16 08:03:39;;;;;;;;;;;15.50;99.90;;;;;;5014394;28;20251;-68
2022/09/16 08:06:07;;;;;;;;;;;15.40;99.90;;;;;;5031215;28;20022;-68
2022/09/16 08:08:33;;;;;;;;;;;15.40;99.90;;;;;;5016343;28;20290;-68
2022/09/16 08:10:59;;;;;;;;;;;15.40;99.90;;;;;;5016045;28;19921;-68
2022/09/16 08:13:25;;;;;;;;;;;15.60;99.90;;;;;;5024530;28;19921;-68
2022/09/16 08:15:51;;;;;;;;;;;15.60;99.90;;;;;;5024295;28;19961;-68
2022/09/16 08:18:17;;;;;;;;;;;15.60;99.90;;;;;;5027694;28;19921;-68
2022/09/16 08:20:42;;;;;;;;;;;15.70;99.90;;;;;;5012577;28;19947;-68
2022/09/16 08:23:08;;;;;;;;;;;15.80;99.90;;;;;;5034213;28;19931;-68
2022/09/16 08:25:35;;;;;;;;;;;15.80;99.90;;;;;;5011612;28;19925;-68
2022/09/16 08:28:01;;;;;;;;;;;15.70;99.90;;;;;;5012319;28;19932;-68
2022/09/16 08:30:26;;;;;;;;;;;15.50;99.90;;;;;;5014089;28;19925;-68
2022/09/16 08:32:58;;;;;;;;;;;15.60;99.90;;;;;;5013557;28;19978;-68
2022/09/16 08:35:24;;;;;;;;;;;15.70;99.90;;;;;;5013405;28;19960;-68
2022/09/16 08:37:50;;;;;;;;;;;15.90;99.90;;;;;;5014031;28;20389;-68
2022/09/16 08:40:18;;;;;;;;;;;16.10;99.90;;;;;;4996266;28;19944;-68
2022/09/16 08:42:52;;;;;;;;;;;16.10;99.90;;;;;;5013925;28;19979;-68
2022/09/16 08:45:40;;;;;;;;;;;16.20;99.90;;;;;;5012928;28;20290;-68
2022/09/16 08:48:26;;;;;;;;;;;16.00;99.90;;;;;;5003347;28;19926;-68
2022/09/16 08:50:51;;;;;;;;;;;16.10;99.90;;;;;;5017564;28;19978;-68
2022/09/16 08:53:17;;;;;;;;;;;16.20;99.90;;;;;;5013979;28;19929;-68
2022/09/16 08:55:45;;;;;;;;;;;16.10;99.90;;;;;;5040477;28;20354;-68
2022/09/16 08:58:30;;;;;;;;;;;16.20;99.90;;;;;;5017516;28;19921;-68
2022/09/16 09:01:13;;;;;;;;;;;16.20;99.90;;;;;;5013262;28;19925;-68
2022/09/16 09:03:40;;;;;;;;;;;16.20;99.90;;;;;;5013170;28;19968;-68
2022/09/16 09:06:21;;;;;;;;;;;16.20;99.90;;;;;;5022118;28;19927;-68
2022/09/16 09:08:54;;;;;;;;;;;16.20;99.90;;;;;;5046685;22;19932;-70
2022/09/16 09:11:28;;;;;;;;;;;16.30;99.90;;;;;;5053325;28;19924;-70
2022/09/16 09:13:54;;;;;;;;;;;16.30;99.90;;;;;;5053561;28;19952;-69
2022/09/16 09:16:19;;;;;;;;;;;16.30;99.90;;;;;;5032759;28;20293;-69
2022/09/16 09:19:04;;;;;;;;;;;16.30;99.90;;;;;;5066784;28;19983;-69
2022/09/16 09:21:44;;;;;;;;;;;16.60;99.90;;;;;;5060364;28;19927;-68
2022/09/16 09:24:29;;;;;;;;;;;16.70;99.00;;;;;;5062689;28;19927;-69
2022/09/16 09:27:00;;;;;;;;;;;16.60;99.50;;;;;;5066178;28;20289;-68
2022/09/16 09:29:33;;;;;;;;;;;16.80;98.50;;;;;;5071120;28;19929;-69
2022/09/16 09:32:11;;;;;;;;;;;16.80;96.70;;;;;;5052002;28;19928;-70
2022/09/16 09:34:43;;;;;;;;;;;16.40;98.20;;;;;;5062444;28;19934;-71
2022/09/16 09:37:13;;;;;;;;;;;16.30;98.10;;;;;;5063964;28;19952;-70
2022/09/16 09:39:47;;;;;;;;;;;16.40;98.20;;;;;;5057413;28;20476;-69
2022/09/16 09:42:17;;;;;;;;;;;16.40;99.10;;;;;;5060128;28;19924;-70
2022/09/16 09:44:46;;;;;;;;;;;16.40;96.60;;;;;;5050879;28;19982;-70
2022/09/16 09:47:23;;;;;;;;;;;16.40;95.90;;;;;;5057576;28;20361;-70
2022/09/16 09:49:50;;;;;;;;;;;16.60;97.60;;;;;;5057051;28;19956;-70
2022/09/16 09:52:22;;;;;;;;;;;16.70;97.10;;;;;;5077071;28;20019;-71
2022/09/16 09:54:49;;;;;;;;;;;16.90;94.40;;;;;;5077790;28;19924;-69
2022/09/16 09:57:38;;;;;;;;;;;17.10;94.90;;;;;;5060847;28;20384;-70
2022/09/16 10:00:10;;;;;;;;;;;17.10;94.70;;;;;;5068179;28;19953;-69
2022/09/16 10:02:38;;;;;;;;;;;17.30;94.20;;;;;;5037293;28;19925;-70
2022/09/16 10:05:03;;;;;;;;;;;17.00;93.90;;;;;;5056959;28;20004;-71
2022/09/16 10:07:29;;;;;;;;;;;16.90;96.60;;;;;;5073487;28;19971;-70
2022/09/16 10:10:02;;;;;;;;;;;16.80;97.70;;;;;;5056843;28;19925;-71
2022/09/16 10:12:32;;;;;;;;;;;16.80;97.20;;;;;;5041940;28;19928;-71
2022/09/16 10:14:58;;;;;;;;;;;17.00;97.60;;;;;;5054716;28;19931;-70
2022/09/16 10:17:25;;;;;;;;;;;17.20;95.70;;;;;;5062835;28;19924;-68
2022/09/16 10:19:56;;;;;;;;;;;17.40;96.70;;;;;;5055986;28;19920;-68
2022/09/16 10:22:24;;;;;;;;;;;17.20;94.80;;;;;;5053535;28;19921;-69
2022/09/16 10:24:57;;;;;;;;;;;16.60;94.20;;;;;;5056949;28;20011;-69
2022/09/16 10:27:34;;;;;;;;;;;16.70;96.80;;;;;;5056931;28;19925;-69
2022/09/16 10:30:06;;;;;;;;;;;16.80;96.10;;;;;;5052942;28;19947;-70
2022/09/16 10:32:36;;;;;;;;;;;17.00;94.90;;;;;;5073569;28;20061;-68
2022/09/16 10:35:05;;;;;;;;;;;16.90;96.50;;;;;;5057780;28;20624;-69
2022/09/16 10:37:31;;;;;;;;;;;16.70;97.30;;;;;;5056885;28;19932;-69
2022/09/16 10:39:56;;;;;;;;;;;16.50;98.30;;;;;;5057084;28;19920;-69
2022/09/16 10:42:23;;;;;;;;;;;16.30;98.40;;;;;;5074242;28;19966;-68
2022/09/16 10:44:50;;;;;;;;;;;16.30;99.10;;;;;;5090885;28;19963;-68
2022/09/16 10:47:23;;;;;;;;;;;16.20;97.90;;;;;;5056071;28;19944;-69
2022/09/16 10:49:55;;;;;;;;;;;16.30;98.00;;;;;;5052533;28;19932;-68
2022/09/16 10:52:21;;;;;;;;;;;16.30;97.00;;;;;;5054522;28;20354;-68
2022/09/16 10:54:47;;;;;;;;;;;16.60;97.50;;;;;;5035645;28;19928;-68
2022/09/16 10:57:23;;;;;;;;;;;16.80;97.30;;;;;;5042027;28;19925;-68
2022/09/16 10:59:55;;;;;;;;;;;17.30;95.60;;;;;;5055307;28;20404;-69
2022/09/16 11:02:40;;;;;;;;;;;17.50;94.30;;;;;;5045835;28;19954;-68
2022/09/16 11:05:10;;;;;;;;;;;17.70;96.40;;;;;;5060052;28;19935;-68
2022/09/16 11:07:41;;;;;;;;;;;17.70;94.60;;;;;;5034304;28;19935;-68
2022/09/16 11:10:09;;;;;;;;;;;17.50;95.50;;;;;;5033182;28;19936;-68
2022/09/16 11:12:54;;;;;;;;;;;17.50;94.50;;;;;;5033549;28;19964;-70
2022/09/16 11:15:28;;;;;;;;;;;17.50;95.10;;;;;;5045085;28;19921;-69
2022/09/16 11:17:53;;;;;;;;;;;17.70;95.20;;;;;;5033660;28;19959;-68
2022/09/16 11:20:30;;;;;;;;;;;17.80;95.60;;;;;;5038071;28;20362;-68
2022/09/16 11:23:10;;;;;;;;;;;17.60;92.20;;;;;;5057856;28;19921;-68
2022/09/16 11:25:46;;;;;;;;;;;17.60;92.70;;;;;;5024260;28;19924;-69
2022/09/16 11:28:19;;;;;;;;;;;17.50;91.00;;;;;;5053210;28;19947;-68
2022/09/16 11:30:54;;;;;;;;;;;17.60;92.80;;;;;;5053153;28;19921;-67
2022/09/16 11:33:22;;;;;;;;;;;17.70;92.60;;;;;;5052154;28;19921;-68
2022/09/16 11:36:07;;;;;;;;;;;17.80;92.70;;;;;;5052034;28;19932;-69
2022/09/16 11:38:38;;;;;;;;;;;17.90;93.80;;;;;;5043836;28;19921;-68
2022/09/16 11:41:06;;;;;;;;;;;17.50;94.30;;;;;;5035704;28;19927;-68
2022/09/16 11:43:47;;;;;;;;;;;17.40;95.60;;;;;;5051750;28;19931;-68
2022/09/16 11:46:22;;;;;;;;;;;17.20;95.80;;;;;;5036176;28;19979;-68
2022/09/16 11:49:06;;;;;;;;;;;16.90;94.70;;;;;;5037263;28;20393;-68
2022/09/16 11:51:32;;;;;;;;;;;16.60;96.00;;;;;;5056404;28;20011;-68
2022/09/16 11:54:03;;;;;;;;;;;16.60;96.10;;;;;;5060417;28;19929;-69
2022/09/16 11:56:47;;;;;;;;;;;16.80;95.30;;;;;;5071852;28;20346;-69
2022/09/16 11:59:19;;;;;;;;;;;16.90;91.20;;;;;;5071891;28;19963;-69
2022/09/16 12:01:47;;;;;;;;;;;17.10;94.00;;;;;;5071966;28;19931;-70
2022/09/16 12:04:19;;;;;;;;;;;17.00;92.60;;;;;;5054243;28;19921;-69
2022/09/16 12:06:57;;;;;;;;;;;16.90;90.90;;;;;;5047325;28;20290;-69
2022/09/16 12:09:26;;;;;;;;;;;17.00;92.20;;;;;;5033216;28;20013;-70
2022/09/16 12:11:55;;;;;;;;;;;17.30;92.60;;;;;;5034786;28;19975;-68
2022/09/16 12:14:34;;;;;;;;;;;17.60;92.90;;;;;;5043501;28;19921;-69
2022/09/16 12:17:05;;;;;;;;;;;17.80;93.20;;;;;;5036615;28;19974;-69
2022/09/16 12:19:36;;;;;;;;;;;17.80;92.20;;;;;;5041321;28;19921;-69
2022/09/16 12:22:15;;;;;;;;;;;17.90;93.50;;;;;;5049140;28;20607;-68
2022/09/16 12:24:49;;;;;;;;;;;18.00;93.00;;;;;;5036470;28;20012;-70
2022/09/16 12:27:21;;;;;;;;;;;17.80;90.30;;;;;;5050857;28;20020;-69
2022/09/16 12:29:50;;;;;;;;;;;18.00;91.10;;;;;;5046810;28;19975;-69
2022/09/16 12:32:25;;;;;;;;;;;18.00;92.10;;;;;;5036909;28;19925;-70
2022/09/16 12:34:57;;;;;;;;;;;18.00;92.50;;;;;;5038467;28;20207;-69
2022/09/16 12:37:38;;;;;;;;;;;17.80;88.10;;;;;;5031684;28;19924;-67
2022/09/16 12:40:05;;;;;;;;;;;17.90;88.20;;;;;;5047962;28;19928;-68
2022/09/16 12:42:48;;;;;;;;;;;17.90;89.80;;;;;;5042439;28;19935;-68
2022/09/16 12:45:39;;;;;;;;;;;18.00;91.20;;;;;;5047559;28;19982;-68
2022/09/16 12:48:18;;;;;;;;;;;18.00;91.20;;;;;;5033170;28;20310;-68
2022/09/16 12:51:02;;;;;;;;;;;17.80;91.20;;;;;;5033223;28;19924;-68
2022/09/16 12:53:39;;;;;;;;;;;17.60;92.10;;;;;;5031585;28;20417;-68
2022/09/16 12:56:14;;;;;;;;;;;17.70;92.00;;;;;;5033842;28;19921;-68
2022/09/16 12:58:58;;;;;;;;;;;17.80;91.40;;;;;;5050497;28;19921;-68
2022/09/16 13:01:34;;;;;;;;;;;17.70;92.50;;;;;;5030051;28;19925;-68
2022/09/16 13:04:03;;;;;;;;;;;17.90;93.00;;;;;;5047323;28;19933;-68
2022/09/16 13:06:32;;;;;;;;;;;17.90;90.90;;;;;;5056014;28;19970;-68
2022/09/16 13:09:10;;;;;;;;;;;18.00;92.30;;;;;;5063534;28;19928;-68
2022/09/16 13:11:36;;;;;;;;;;;18.10;91.50;;;;;;5064546;28;19925;-68
2022/09/16 13:14:01;;;;;;;;;;;18.10;91.90;;;;;;5047232;28;19927;-68
2022/09/16 13:16:30;;;;;;;;;;;17.90;92.20;;;;;;5046823;28;19920;-68
2022/09/16 13:19:14;;;;;;;;;;;17.80;92.50;;;;;;5049717;28;19920;-68
2022/09/16 13:21:43;;;;;;;;;;;17.70;93.30;;;;;;5049363;28;19978;-68
2022/09/16 13:24:14;;;;;;;;;;;17.40;92.90;;;;;;5045746;28;19921;-68
2022/09/16 13:26:40;;;;;;;;;;;17.40;92.60;;;;;;5064111;28;19929;-68
2022/09/16 13:29:29;;;;;;;;;;;17.40;93.50;;;;;;5048734;28;20239;-68
2022/09/16 13:31:55;;;;;;;;;;;17.00;92.30;;;;;;5041330;28;20011;-68
2022/09/16 13:34:20;;;;;;;;;;;17.20;93.70;;;;;;5035600;28;20027;-68
2022/09/16 13:36:46;;;;;;;;;;;16.90;92.20;;;;;;5049806;28;19921;-68
2022/09/16 13:39:13;;;;;;;;;;;17.10;94.40;;;;;;5049277;28;19925;-68
2022/09/16 13:41:43;;;;;;;;;;;16.90;90.60;;;;;;5048690;28;19987;-68
2022/09/16 13:44:26;;;;;;;;;;;16.70;91.10;;;;;;5049204;28;19959;-68
2022/09/16 13:46:51;;;;;;;;;;;16.80;91.80;;;;;;5047069;28;19921;-68
2022/09/16 13:49:19;;;;;;;;;;;16.90;92.60;;;;;;5051016;28;19928;-68
2022/09/16 13:51:46;;;;;;;;;;;16.90;93.00;;;;;;5041516;28;19925;-68
2022/09/16 13:54:19;;;;;;;;;;;16.80;93.60;;;;;;5043137;28;19921;-68
2022/09/16 13:57:00;;;;;;;;;;;16.80;94.10;;;;;;5050133;28;20321;-68
2022/09/16 13:59:35;;;;;;;;;;;16.50;93.60;;;;;;5032110;28;19921;-68
2022/09/16 14:02:26;;;;;;;;;;;16.60;94.70;;;;;;5034249;28;20290;-68
2022/09/16 14:04:51;;;;;;;;;;;16.10;95.80;;;;;;5055342;28;19924;-68
2022/09/16 14:07:35;;;;;;;;;;;16.10;97.30;;;;;;5056921;28;19974;-68
2022/09/16 14:10:04;;;;;;;;;;;16.10;97.60;;;;;;5044699;28;19925;-68
2022/09/16 14:12:50;;;;;;;;;;;16.00;98.80;;;;;;5045940;28;20274;-68
2022/09/16 14:15:17;;;;;;;;;;;16.00;98.50;;;;;;5049956;28;19928;-68
2022/09/16 14:17:44;;;;;;;;;;;15.80;99.90;;;;;;5050006;28;19932;-68
2022/09/16 14:20:15;;;;;;;;;;;15.90;99.90;;;;;;5052795;28;19960;-68
2022/09/16 14:22:43;;;;;;;;;;;15.80;99.90;;;;;;5032366;28;20307;-68
2022/09/16 14:25:24;;;;;;;;;;;15.70;99.90;;;;;;5046804;28;20298;-68
2022/09/16 14:27:49;;;;;;;;;;;15.60;99.90;;;;;;5047763;28;20050;-68
2022/09/16 14:30:16;;;;;;;;;;;15.50;99.90;;;;;;5049568;28;20015;-68
2022/09/16 14:32:41;;;;;;;;;;;15.60;99.90;;;;;;5048586;28;20446;-68
2022/09/16 14:35:21;;;;;;;;;;;15.50;99.90;;;;;;5053217;28;19921;-68